createdAt,value
2015-08-09T00:00:08.980Z,70.88
2015-08-09T00:00:21.356Z,70.69
2015-08-09T00:00:33.747Z,70.4
2015-08-09T00:00:46.122Z,70.59
2015-08-09T00:00:58.497Z,70.5
2015-08-09T00:01:10.887Z,70.69
2015-08-09T00:01:23.249Z,70.4
2015-08-09T00:01:35.624Z,70.4
2015-08-09T00:01:48.014Z,70.4
2015-08-09T00:02:00.405Z,70.21
2015-08-09T00:02:12.827Z,70.21
2015-08-09T00:02:25.205Z,70.31
2015-08-09T00:02:37.596Z,69.93
2015-08-09T00:02:49.986Z,69.83
2015-08-09T00:03:02.392Z,69.74
2015-08-09T00:03:14.814Z,69.83
2015-08-09T00:03:27.206Z,69.74
2015-08-09T00:03:39.643Z,69.93
2015-08-09T00:03:52.034Z,69.45
2015-08-09T00:04:04.456Z,69.64
2015-08-09T00:04:16.862Z,69.74
2015-08-09T00:04:29.270Z,69.26
2015-08-09T00:04:41.677Z,69.26
2015-08-09T00:04:54.083Z,69.17
2015-08-09T00:05:05.645Z,69.17
2015-08-09T00:05:18.020Z,68.98
2015-08-09T00:05:30.397Z,68.98
2015-08-09T00:05:42.772Z,68.4
2015-08-09T00:05:55.147Z,68.78
2015-08-09T00:06:07.522Z,68.69
2015-08-09T00:06:19.897Z,68.59
2015-08-09T00:06:32.275Z,68.78
2015-08-09T00:06:44.666Z,68.5
2015-08-09T00:06:57.041Z,68.63
2015-08-09T00:07:09.416Z,68.3
2015-08-09T00:07:21.791Z,68.21
2015-08-09T00:07:34.184Z,68.21
2015-08-09T00:07:46.559Z,68.21
2015-08-09T00:07:58.934Z,68.3
2015-08-09T00:08:11.324Z,68.3
2015-08-09T00:08:23.699Z,68.02
2015-08-09T00:08:36.075Z,67.83
2015-08-09T00:08:48.450Z,67.93
2015-08-09T00:09:00.825Z,67.86
2015-08-09T00:09:13.216Z,67.64
2015-08-09T00:09:25.591Z,67.77
2015-08-09T00:09:37.985Z,67.68
2015-08-09T00:09:50.360Z,67.77
2015-08-09T00:10:02.735Z,67.74
2015-08-09T00:10:15.110Z,67.77
2015-08-09T00:10:27.485Z,67.68
2015-08-09T00:10:39.861Z,67.77
2015-08-09T00:10:52.236Z,67.83
2015-08-09T00:11:04.626Z,67.83
2015-08-09T00:11:17.001Z,68.05
2015-08-09T00:11:29.376Z,67.68
2015-08-09T00:11:41.769Z,67.68
2015-08-09T00:11:54.159Z,67.68
2015-08-09T00:12:06.566Z,67.77
2015-08-09T00:12:18.972Z,67.77
2015-08-09T00:12:31.394Z,67.48
2015-08-09T00:12:43.803Z,67.58
2015-08-09T00:12:56.209Z,67.58
2015-08-09T00:13:08.616Z,67.68
2015-08-09T00:13:21.022Z,67.68
2015-08-09T00:13:33.428Z,67.68
2015-08-09T00:13:45.821Z,67.68
2015-08-09T00:13:58.258Z,67.77
2015-08-09T00:14:10.727Z,67.68
2015-08-09T00:14:23.149Z,67.77
2015-08-09T00:14:35.524Z,67.86
2015-08-09T00:14:47.901Z,67.68
2015-08-09T00:15:00.276Z,67.86
2015-08-09T00:15:12.651Z,67.86
2015-08-09T00:15:25.026Z,67.68
2015-08-09T00:15:37.401Z,67.68
2015-08-09T00:15:49.856Z,67.86
2015-08-09T00:16:02.262Z,67.77
2015-08-09T00:16:14.653Z,67.68
2015-08-09T00:16:27.028Z,67.77
2015-08-09T00:16:39.403Z,67.96
2015-08-09T00:16:51.780Z,67.86
2015-08-09T00:17:04.155Z,67.77
2015-08-09T00:17:16.530Z,67.86
2015-08-09T00:17:28.920Z,68.15
2015-08-09T00:17:41.295Z,68.34
2015-08-09T00:17:53.671Z,68.24
2015-08-09T00:18:06.046Z,68.24
2015-08-09T00:18:17.703Z,68.15
2015-08-09T00:18:30.078Z,68.15
2015-08-09T00:18:42.468Z,68.53
2015-08-09T00:18:54.845Z,68.91
2015-08-09T00:19:07.236Z,68.63
2015-08-09T00:19:19.611Z,68.91
2015-08-09T00:19:31.986Z,68.72
2015-08-09T00:19:44.377Z,68.88
2015-08-09T00:19:56.754Z,68.91
2015-08-09T00:20:09.129Z,68.98
2015-08-09T00:20:21.504Z,69.01
2015-08-09T00:20:33.894Z,69.29
2015-08-09T00:20:46.285Z,69.45
2015-08-09T00:20:58.677Z,69.17
2015-08-09T00:21:11.068Z,69.39
2015-08-09T00:21:23.443Z,68.98
2015-08-09T00:21:35.849Z,69.58
2015-08-09T00:21:48.256Z,69.45
2015-08-09T00:22:00.664Z,69.35
2015-08-09T00:22:13.086Z,69.54
2015-08-09T00:22:25.492Z,69.64
2015-08-09T00:22:37.898Z,69.64
2015-08-09T00:22:50.289Z,69.64
2015-08-09T00:23:01.978Z,69.93
2015-08-09T00:23:13.713Z,69.64
2015-08-09T00:23:26.119Z,70.02
2015-08-09T00:23:38.525Z,69.74
2015-08-09T00:23:50.916Z,69.74
2015-08-09T00:24:03.308Z,70.02
2015-08-09T00:24:15.683Z,70.12
2015-08-09T00:24:28.043Z,70.31
2015-08-09T00:24:40.433Z,70.5
2015-08-09T00:24:52.808Z,70.4
2015-08-09T00:25:05.185Z,70.31
2015-08-09T00:25:17.560Z,70.31
2015-08-09T00:25:29.935Z,70.78
2015-08-09T00:25:42.326Z,70.4
2015-08-09T00:25:54.701Z,70.5
2015-08-09T00:26:07.079Z,70.5
2015-08-09T00:26:19.470Z,70.59
2015-08-09T00:26:31.845Z,70.5
2015-08-09T00:26:44.220Z,70.78
2015-08-09T00:26:56.595Z,70.59
2015-08-09T00:27:08.986Z,70.59
2015-08-09T00:27:21.361Z,71.07
2015-08-09T00:27:33.752Z,70.97
2015-08-09T00:27:46.127Z,70.97
2015-08-09T00:27:58.502Z,70.97
2015-08-09T00:28:10.879Z,70.97
2015-08-09T00:28:23.254Z,71.17
2015-08-09T00:28:35.645Z,71.07
2015-08-09T00:28:48.020Z,71.07
2015-08-09T00:29:00.395Z,71.26
2015-08-09T00:29:12.772Z,71.36
2015-08-09T00:29:25.147Z,71.17
2015-08-09T00:29:37.522Z,71.07
2015-08-09T00:29:49.897Z,71.26
2015-08-09T00:30:02.287Z,71.17
2015-08-09T00:30:14.680Z,71.17
2015-08-09T00:30:27.070Z,71.17
2015-08-09T00:30:39.445Z,71.36
2015-08-09T00:30:51.836Z,71.26
2015-08-09T00:31:04.227Z,70.78
2015-08-09T00:31:16.635Z,71.17
2015-08-09T00:31:29.057Z,71.26
2015-08-09T00:31:41.447Z,71.17
2015-08-09T00:31:53.854Z,71.17
2015-08-09T00:32:06.260Z,70.88
2015-08-09T00:32:18.668Z,71.26
2015-08-09T00:32:31.059Z,70.97
2015-08-09T00:32:43.465Z,71.17
2015-08-09T00:32:55.903Z,70.88
2015-08-09T00:33:08.309Z,70.97
2015-08-09T00:33:20.701Z,71.07
2015-08-09T00:33:33.139Z,70.88
2015-08-09T00:33:45.514Z,71.17
2015-08-09T00:33:57.889Z,71.17
2015-08-09T00:34:10.264Z,71.07
2015-08-09T00:34:22.641Z,71.17
2015-08-09T00:34:35.016Z,70.97
2015-08-09T00:34:47.391Z,70.78
2015-08-09T00:34:59.766Z,70.59
2015-08-09T00:35:12.141Z,70.59
2015-08-09T00:35:24.546Z,70.69
2015-08-09T00:35:36.921Z,70.69
2015-08-09T00:35:49.296Z,70.5
2015-08-09T00:36:01.671Z,70.59
2015-08-09T00:36:14.046Z,70.59
2015-08-09T00:36:26.466Z,70.69
2015-08-09T00:36:38.856Z,70.59
2015-08-09T00:36:51.231Z,70.78
2015-08-09T00:37:03.606Z,70.69
2015-08-09T00:37:15.981Z,70.31
2015-08-09T00:37:28.402Z,70.31
2015-08-09T00:37:40.777Z,70.31
2015-08-09T00:37:53.137Z,70.31
2015-08-09T00:38:05.543Z,70.69
2015-08-09T00:38:17.199Z,70.4
2015-08-09T00:38:29.619Z,70.5
2015-08-09T00:38:42.010Z,70.59
2015-08-09T00:38:54.369Z,70.59
2015-08-09T00:39:06.744Z,70.78
2015-08-09T00:39:19.119Z,70.69
2015-08-09T00:39:31.540Z,70.69
2015-08-09T00:39:43.931Z,70.69
2015-08-09T00:39:56.306Z,70.78
2015-08-09T00:40:08.681Z,70.5
2015-08-09T00:40:21.087Z,70.69
2015-08-09T00:40:33.496Z,70.59
2015-08-09T00:40:45.918Z,70.59
2015-08-09T00:40:58.340Z,70.69
2015-08-09T00:41:10.746Z,70.69
2015-08-09T00:41:23.152Z,70.59
2015-08-09T00:41:35.575Z,70.88
2015-08-09T00:41:47.279Z,70.88
2015-08-09T00:41:59.685Z,70.97
2015-08-09T00:42:12.091Z,71.07
2015-08-09T00:42:24.513Z,71.07
2015-08-09T00:42:36.921Z,70.97
2015-08-09T00:42:49.327Z,70.97
2015-08-09T00:43:01.733Z,70.97
2015-08-09T00:43:14.155Z,71.07
2015-08-09T00:43:26.546Z,70.97
2015-08-09T00:43:38.939Z,70.97
2015-08-09T00:43:51.314Z,70.97
2015-08-09T00:44:03.689Z,70.97
2015-08-09T00:44:16.064Z,71.17
2015-08-09T00:44:28.439Z,70.97
2015-08-09T00:44:40.831Z,70.97
2015-08-09T00:44:53.315Z,70.78
2015-08-09T00:45:05.706Z,71.26
2015-08-09T00:45:18.081Z,71.17
2015-08-09T00:45:30.456Z,71.26
2015-08-09T00:45:42.843Z,71.17
2015-08-09T00:45:55.233Z,71.17
2015-08-09T00:46:07.608Z,71.26
2015-08-09T00:46:19.999Z,71.36
2015-08-09T00:46:32.374Z,71.36
2015-08-09T00:46:44.757Z,71.17
2015-08-09T00:46:57.132Z,71.26
2015-08-09T00:47:09.507Z,71.55
2015-08-09T00:47:21.882Z,71.45
2015-08-09T00:47:34.257Z,71.36
2015-08-09T00:47:46.654Z,71.26
2015-08-09T00:47:59.014Z,71.55
2015-08-09T00:48:11.404Z,71.26
2015-08-09T00:48:23.779Z,71.36
2015-08-09T00:48:36.154Z,71.55
2015-08-09T00:48:48.536Z,71.36
2015-08-09T00:49:00.911Z,71.36
2015-08-09T00:49:13.286Z,71.55
2015-08-09T00:49:25.677Z,71.64
2015-08-09T00:49:38.068Z,71.83
2015-08-09T00:49:50.466Z,71.73
2015-08-09T00:50:02.857Z,71.64
2015-08-09T00:50:15.248Z,72.02
2015-08-09T00:50:27.654Z,72.21
2015-08-09T00:50:40.076Z,72.31
2015-08-09T00:50:52.471Z,72.21
2015-08-09T00:51:04.893Z,71.93
2015-08-09T00:51:17.284Z,72.12
2015-08-09T00:51:29.690Z,72.31
2015-08-09T00:51:42.096Z,71.93
2015-08-09T00:51:54.507Z,72.5
2015-08-09T00:52:06.960Z,72.6
2015-08-09T00:52:19.382Z,72.41
2015-08-09T00:52:31.772Z,72.6
2015-08-09T00:52:44.210Z,72.5
2015-08-09T00:52:56.589Z,72.41
2015-08-09T00:53:08.964Z,72.21
2015-08-09T00:53:19.917Z,72.31
2015-08-09T00:53:32.292Z,72.41
2015-08-09T00:53:44.667Z,72.21
2015-08-09T00:53:57.046Z,72.31
2015-08-09T00:54:09.421Z,72.31
2015-08-09T00:54:21.796Z,72.21
2015-08-09T00:54:34.171Z,72.41
2015-08-09T00:54:46.561Z,72.69
2015-08-09T00:54:58.940Z,72.31
2015-08-09T00:55:11.315Z,72.6
2015-08-09T00:55:23.690Z,72.5
2015-08-09T00:55:36.065Z,72.31
2015-08-09T00:55:48.456Z,72.41
2015-08-09T00:56:00.850Z,72.41
2015-08-09T00:56:13.225Z,72.21
2015-08-09T00:56:25.615Z,72.21
2015-08-09T00:56:38.006Z,72.46
2015-08-09T00:56:50.381Z,72.5
2015-08-09T00:57:02.040Z,72.31
2015-08-09T00:57:14.431Z,72.41
2015-08-09T00:57:26.103Z,72.56
2015-08-09T00:57:38.478Z,72.46
2015-08-09T00:57:50.853Z,72.78
2015-08-09T00:58:03.230Z,72.94
2015-08-09T00:58:15.605Z,72.65
2015-08-09T00:58:27.980Z,72.65
2015-08-09T00:58:40.370Z,72.97
2015-08-09T00:58:52.761Z,72.75
2015-08-09T00:59:05.139Z,73.03
2015-08-09T00:59:17.530Z,72.37
2015-08-09T00:59:29.920Z,72.37
2015-08-09T00:59:42.311Z,72.85
2015-08-09T00:59:54.717Z,73.41
2015-08-09T01:00:07.126Z,72.94
2015-08-09T01:00:19.533Z,73.51
2015-08-09T01:00:31.923Z,72.85
2015-08-09T01:00:44.329Z,73.61
2015-08-09T01:00:56.736Z,72.85
2015-08-09T01:01:09.144Z,73.03
2015-08-09T01:01:21.550Z,72.75
2015-08-09T01:01:33.972Z,72.85
2015-08-09T01:01:46.394Z,72.78
2015-08-09T01:01:58.800Z,72.75
2015-08-09T01:02:11.208Z,73.03
2015-08-09T01:02:23.630Z,72.85
2015-08-09T01:02:36.021Z,72.94
2015-08-09T01:02:47.677Z,72.37
2015-08-09T01:03:00.068Z,72.85
2015-08-09T01:03:12.446Z,73.41
2015-08-09T01:03:24.821Z,73.32
2015-08-09T01:03:37.196Z,72.94
2015-08-09T01:03:49.571Z,73.13
2015-08-09T01:04:01.961Z,73.32
2015-08-09T01:04:14.338Z,73.13
2015-08-09T01:04:26.713Z,73.13
2015-08-09T01:04:39.088Z,73.03
2015-08-09T01:04:51.463Z,73.41
2015-08-09T01:05:03.838Z,73.41
2015-08-09T01:05:16.215Z,73.32
2015-08-09T01:05:28.606Z,72.94
2015-08-09T01:05:40.981Z,72.85
2015-08-09T01:05:53.356Z,73.32
2015-08-09T01:06:05.731Z,73.22
2015-08-09T01:06:18.109Z,73.22
2015-08-09T01:06:29.781Z,73.41
2015-08-09T01:06:42.156Z,73.7
2015-08-09T01:06:54.562Z,73.41
2015-08-09T01:07:06.953Z,73.7
2015-08-09T01:07:19.330Z,73.51
2015-08-09T01:07:30.986Z,73.51
2015-08-09T01:07:43.377Z,73.51
2015-08-09T01:07:55.752Z,73.7
2015-08-09T01:08:08.142Z,73.51
2015-08-09T01:08:20.534Z,73.8
2015-08-09T01:08:32.909Z,73.7
2015-08-09T01:08:45.300Z,73.7
2015-08-09T01:08:57.690Z,73.51
2015-08-09T01:09:10.065Z,73.89
2015-08-09T01:09:22.458Z,73.13
2015-08-09T01:09:34.864Z,73.8
2015-08-09T01:09:47.286Z,74.46
2015-08-09T01:09:59.692Z,73.8
2015-08-09T01:10:12.098Z,73.7
2015-08-09T01:10:24.508Z,73.7
2015-08-09T01:10:36.914Z,73.8
2015-08-09T01:10:49.320Z,73.8
2015-08-09T01:11:01.742Z,73.7
2015-08-09T01:11:14.148Z,73.99
2015-08-09T01:11:26.557Z,74.27
2015-08-09T01:11:38.978Z,73.32
2015-08-09T01:11:51.353Z,74.08
2015-08-09T01:12:03.728Z,74.18
2015-08-09T01:12:16.103Z,73.51
2015-08-09T01:12:28.479Z,74.37
2015-08-09T01:12:40.854Z,73.7
2015-08-09T01:12:53.229Z,73.51
2015-08-09T01:13:05.604Z,74.08
2015-08-09T01:13:17.979Z,73.8
2015-08-09T01:13:30.373Z,74.18
2015-08-09T01:13:42.748Z,74.27
2015-08-09T01:13:55.123Z,74.27
2015-08-09T01:14:07.498Z,74.27
2015-08-09T01:14:19.873Z,74.37
2015-08-09T01:14:32.250Z,74.46
2015-08-09T01:14:44.641Z,74.08
2015-08-09T01:14:57.016Z,74.18
2015-08-09T01:15:09.391Z,74.18
2015-08-09T01:15:21.766Z,74.08
2015-08-09T01:15:34.142Z,74.08
2015-08-09T01:15:46.517Z,74.08
2015-08-09T01:15:58.892Z,74.37
2015-08-09T01:16:11.267Z,74.18
2015-08-09T01:16:23.673Z,74.27
2015-08-09T01:16:36.051Z,74.08
2015-08-09T01:16:48.442Z,74.08
2015-08-09T01:17:00.817Z,74.46
2015-08-09T01:17:13.192Z,74.18
2015-08-09T01:17:25.567Z,74.37
2015-08-09T01:17:37.958Z,74.24
2015-08-09T01:17:50.364Z,74.46
2015-08-09T01:18:02.755Z,74.14
2015-08-09T01:18:15.130Z,74.18
2015-08-09T01:18:27.521Z,74.56
2015-08-09T01:18:39.913Z,74.37
2015-08-09T01:18:52.320Z,74.65
2015-08-09T01:19:04.710Z,74.56
2015-08-09T01:19:17.132Z,74.43
2015-08-09T01:19:29.554Z,74.52
2015-08-09T01:19:41.963Z,74.52
2015-08-09T01:19:54.369Z,74.52
2015-08-09T01:20:06.776Z,74.56
2015-08-09T01:20:19.182Z,74.52
2015-08-09T01:20:31.604Z,74.65
2015-08-09T01:20:44.011Z,74.84
2015-08-09T01:20:56.402Z,74.75
2015-08-09T01:21:08.808Z,74.52
2015-08-09T01:21:21.214Z,74.62
2015-08-09T01:21:33.589Z,74.52
2015-08-09T01:21:45.966Z,74.62
2015-08-09T01:21:58.341Z,74.71
2015-08-09T01:22:10.716Z,74.71
2015-08-09T01:22:23.091Z,74.94
2015-08-09T01:22:35.466Z,74.62
2015-08-09T01:22:47.843Z,74.71
2015-08-09T01:23:00.234Z,74.8
2015-08-09T01:23:12.609Z,74.62
2015-08-09T01:23:24.984Z,74.9
2015-08-09T01:23:37.374Z,75.09
2015-08-09T01:23:49.751Z,74.94
2015-08-09T01:24:02.126Z,75.28
2015-08-09T01:24:14.501Z,74.9
2015-08-09T01:24:26.892Z,75.19
2015-08-09T01:24:39.267Z,75.28
2015-08-09T01:24:51.645Z,75.28
2015-08-09T01:25:04.020Z,75.19
2015-08-09T01:25:16.411Z,75.38
2015-08-09T01:25:28.786Z,75.57
2015-08-09T01:25:41.161Z,75.76
2015-08-09T01:25:53.552Z,75.95
2015-08-09T01:26:05.912Z,75.76
2015-08-09T01:26:18.287Z,75.85
2015-08-09T01:26:30.662Z,76.04
2015-08-09T01:26:43.037Z,75.95
2015-08-09T01:26:54.711Z,75.85
2015-08-09T01:27:07.086Z,76.04
2015-08-09T01:27:19.445Z,76.14
2015-08-09T01:27:31.836Z,75.95
2015-08-09T01:27:44.211Z,75.95
2015-08-09T01:27:56.588Z,75.95
2015-08-09T01:28:08.978Z,76.04
2015-08-09T01:28:21.369Z,75.95
2015-08-09T01:28:33.759Z,76.04
2015-08-09T01:28:46.181Z,75.67
2015-08-09T01:28:58.590Z,75.76
2015-08-09T01:29:11.011Z,76.04
2015-08-09T01:29:23.418Z,75.95
2015-08-09T01:29:35.824Z,75.85
2015-08-09T01:29:48.230Z,75.95
2015-08-09T01:30:00.638Z,75.95
2015-08-09T01:30:13.076Z,76.04
2015-08-09T01:30:25.482Z,76.04
2015-08-09T01:30:37.888Z,76.23
2015-08-09T01:30:50.263Z,76.04
2015-08-09T01:31:02.656Z,75.85
2015-08-09T01:31:15.031Z,76.14
2015-08-09T01:31:27.406Z,76.04
2015-08-09T01:31:39.765Z,75.85
2015-08-09T01:31:52.140Z,76.14
2015-08-09T01:32:04.517Z,75.95
2015-08-09T01:32:16.908Z,76.04
2015-08-09T01:32:29.283Z,76.14
2015-08-09T01:32:41.658Z,76.23
2015-08-09T01:32:53.314Z,75.95
2015-08-09T01:33:05.707Z,76.23
2015-08-09T01:33:18.082Z,75.95
2015-08-09T01:33:30.457Z,76.14
2015-08-09T01:33:42.832Z,75.67
2015-08-09T01:33:55.223Z,75.76
2015-08-09T01:34:07.600Z,75.95
2015-08-09T01:34:19.975Z,75.67
2015-08-09T01:34:32.350Z,75.76
2015-08-09T01:34:44.725Z,75.67
2015-08-09T01:34:57.100Z,75.67
2015-08-09T01:35:09.477Z,76.04
2015-08-09T01:35:21.867Z,76.14
2015-08-09T01:35:33.523Z,75.95
2015-08-09T01:35:45.914Z,75.95
2015-08-09T01:35:58.289Z,75.95
2015-08-09T01:36:10.666Z,76.04
2015-08-09T01:36:23.041Z,76.14
2015-08-09T01:36:35.416Z,76.23
2015-08-09T01:36:47.838Z,76.14
2015-08-09T01:37:00.213Z,76.04
2015-08-09T01:37:12.606Z,76.04
2015-08-09T01:37:24.996Z,76.23
2015-08-09T01:37:37.371Z,76.23
2015-08-09T01:37:49.777Z,76.04
2015-08-09T01:38:02.184Z,76.14
2015-08-09T01:38:14.608Z,76.23
2015-08-09T01:38:26.295Z,76.04
2015-08-09T01:38:38.936Z,76.04
2015-08-09T01:38:51.342Z,75.67
2015-08-09T01:39:03.748Z,75.95
2015-08-09T01:39:16.156Z,75.95
2015-08-09T01:39:28.578Z,75.76
2015-08-09T01:39:40.985Z,75.67
2015-08-09T01:39:53.391Z,75.76
2015-08-09T01:40:05.094Z,75.67
2015-08-09T01:40:17.502Z,75.76
2015-08-09T01:40:29.940Z,75.76
2015-08-09T01:40:42.315Z,76.23
2015-08-09T01:40:54.690Z,76.33
2015-08-09T01:41:07.065Z,75.76
2015-08-09T01:41:19.442Z,75.47
2015-08-09T01:41:31.817Z,75.38
2015-08-09T01:41:44.192Z,75.38
2015-08-09T01:41:56.567Z,75.28
2015-08-09T01:42:08.957Z,75.09
2015-08-09T01:42:21.333Z,75.28
2015-08-09T01:42:33.708Z,75.28
2015-08-09T01:42:46.083Z,75.09
2015-08-09T01:42:58.458Z,75.28
2015-08-09T01:43:10.833Z,75.57
2015-08-09T01:43:23.210Z,75.09
2015-08-09T01:43:35.617Z,75.09
2015-08-09T01:43:47.992Z,75.19
2015-08-09T01:44:00.367Z,75.28
2015-08-09T01:44:12.742Z,74.62
2015-08-09T01:44:25.120Z,74.71
2015-08-09T01:44:37.495Z,74.52
2015-08-09T01:44:49.870Z,74.52
2015-08-09T01:45:02.260Z,74.24
2015-08-09T01:45:14.635Z,74.37
2015-08-09T01:45:27.011Z,74.27
2015-08-09T01:45:39.386Z,74.18
2015-08-09T01:45:51.761Z,74.14
2015-08-09T01:46:04.136Z,74.27
2015-08-09T01:46:16.511Z,74.27
2015-08-09T01:46:28.905Z,74.37
2015-08-09T01:46:41.311Z,74.14
2015-08-09T01:46:53.702Z,74.37
2015-08-09T01:47:06.092Z,74.27
2015-08-09T01:47:18.483Z,74.37
2015-08-09T01:47:30.876Z,74.18
2015-08-09T01:47:43.282Z,74.18
2015-08-09T01:47:54.969Z,74.08
2015-08-09T01:48:07.376Z,74.18
2015-08-09T01:48:19.782Z,74.27
2015-08-09T01:48:32.190Z,74.18
2015-08-09T01:48:44.581Z,74.08
2015-08-09T01:48:57.018Z,74.27
2015-08-09T01:49:09.409Z,74.27
2015-08-09T01:49:21.831Z,74.37
2015-08-09T01:49:34.239Z,73.61
2015-08-09T01:49:46.661Z,74.18
2015-08-09T01:49:59.067Z,73.41
2015-08-09T01:50:11.442Z,73.51
2015-08-09T01:50:23.817Z,74.27
2015-08-09T01:50:36.194Z,73.41
2015-08-09T01:50:48.569Z,74.46
2015-08-09T01:51:00.944Z,73.51
2015-08-09T01:51:13.319Z,73.22
2015-08-09T01:51:25.694Z,73.51
2015-08-09T01:51:38.071Z,74.46
2015-08-09T01:51:50.462Z,74.37
2015-08-09T01:52:02.837Z,73.51
2015-08-09T01:52:15.212Z,74.37
2015-08-09T01:52:27.587Z,74.27
2015-08-09T01:52:39.964Z,73.41
2015-08-09T01:52:52.339Z,74.18
2015-08-09T01:53:04.729Z,74.27
2015-08-09T01:53:17.104Z,74.18
2015-08-09T01:53:29.479Z,74.37
2015-08-09T01:53:41.855Z,73.8
2015-08-09T01:53:54.230Z,74.46
2015-08-09T01:54:06.621Z,74.27
2015-08-09T01:54:18.996Z,74.27
2015-08-09T01:54:31.387Z,74.75
2015-08-09T01:54:43.764Z,74.56
2015-08-09T01:54:55.435Z,74.08
2015-08-09T01:55:07.810Z,74.37
2015-08-09T01:55:20.185Z,73.89
2015-08-09T01:55:32.560Z,74.27
2015-08-09T01:55:44.937Z,74.27
2015-08-09T01:55:57.328Z,73.89
2015-08-09T01:56:09.734Z,74.75
2015-08-09T01:56:22.125Z,74.27
2015-08-09T01:56:34.516Z,74.27
2015-08-09T01:56:46.893Z,74.37
2015-08-09T01:56:59.299Z,74.27
2015-08-09T01:57:11.721Z,74.56
2015-08-09T01:57:23.424Z,74.18
2015-08-09T01:57:35.846Z,74.27
2015-08-09T01:57:48.254Z,74.18
2015-08-09T01:58:00.676Z,74.65
2015-08-09T01:58:13.098Z,74.33
2015-08-09T01:58:25.504Z,74.08
2015-08-09T01:58:37.926Z,74.65
2015-08-09T01:58:50.334Z,74.04
2015-08-09T01:59:02.740Z,74.18
2015-08-09T01:59:15.147Z,74.08
2015-08-09T01:59:27.553Z,74.18
2015-08-09T01:59:39.975Z,74.18
2015-08-09T01:59:52.352Z,74.18
2015-08-09T02:00:04.727Z,74.18
2015-08-09T02:00:17.117Z,73.99
2015-08-09T02:00:29.492Z,74.18
2015-08-09T02:00:41.867Z,74.14
2015-08-09T02:00:54.244Z,74.08
2015-08-09T02:01:06.619Z,74.08
2015-08-09T02:01:19.010Z,73.99
2015-08-09T02:01:31.401Z,74.37
2015-08-09T02:01:43.776Z,74.33
2015-08-09T02:01:55.449Z,73.89
2015-08-09T02:02:07.824Z,73.7
2015-08-09T02:02:20.199Z,74.46
2015-08-09T02:02:32.574Z,73.32
2015-08-09T02:02:44.965Z,73.7
2015-08-09T02:02:57.343Z,73.7
2015-08-09T02:03:09.749Z,73.61
2015-08-09T02:03:22.124Z,73.61
2015-08-09T02:03:34.484Z,73.22
2015-08-09T02:03:46.874Z,72.85
2015-08-09T02:03:59.250Z,73.03
2015-08-09T02:04:11.625Z,73.51
2015-08-09T02:04:24.016Z,73.03
2015-08-09T02:04:35.672Z,73.13
2015-08-09T02:04:48.047Z,72.94
2015-08-09T02:05:00.424Z,72.65
2015-08-09T02:05:12.799Z,72.94
2015-08-09T02:05:25.174Z,72.75
2015-08-09T02:05:37.549Z,73.03
2015-08-09T02:05:49.955Z,72.85
2015-08-09T02:06:02.348Z,73.03
2015-08-09T02:06:14.739Z,72.85
2015-08-09T02:06:27.114Z,72.85
2015-08-09T02:06:39.504Z,72.75
2015-08-09T02:06:51.895Z,72.94
2015-08-09T02:07:04.319Z,72.85
2015-08-09T02:07:16.741Z,72.75
2015-08-09T02:07:29.147Z,73.03
2015-08-09T02:07:41.553Z,72.37
2015-08-09T02:07:53.959Z,73.51
2015-08-09T02:08:06.369Z,73.41
2015-08-09T02:08:18.791Z,73.22
2015-08-09T02:08:31.181Z,73.03
2015-08-09T02:08:43.556Z,73.22
2015-08-09T02:08:55.931Z,73.13
2015-08-09T02:09:08.307Z,73.13
2015-08-09T02:09:20.682Z,73.32
2015-08-09T02:09:33.057Z,73.22
2015-08-09T02:09:45.432Z,72.94
2015-08-09T02:09:57.823Z,73.03
2015-08-09T02:10:10.200Z,73.03
2015-08-09T02:10:22.590Z,73.22
2015-08-09T02:10:34.965Z,73.22
2015-08-09T02:10:47.340Z,73.03
2015-08-09T02:10:59.715Z,73.13
2015-08-09T02:11:12.092Z,73.03
2015-08-09T02:11:24.483Z,73.51
2015-08-09T02:11:36.858Z,73.32
2015-08-09T02:11:49.233Z,73.32
2015-08-09T02:12:00.905Z,73.41
2015-08-09T02:12:13.329Z,73.41
2015-08-09T02:12:25.719Z,73.51
2015-08-09T02:12:38.094Z,73.51
2015-08-09T02:12:50.485Z,73.03
2015-08-09T02:13:02.860Z,73.03
2015-08-09T02:13:15.238Z,72.94
2015-08-09T02:13:27.629Z,72.94
2015-08-09T02:13:40.019Z,72.85
2015-08-09T02:13:52.410Z,73.22
2015-08-09T02:14:04.113Z,73.22
2015-08-09T02:14:16.520Z,73.03
2015-08-09T02:14:28.208Z,72.94
2015-08-09T02:14:40.598Z,73.22
2015-08-09T02:14:52.989Z,73.41
2015-08-09T02:15:05.411Z,73.32
2015-08-09T02:15:17.819Z,72.94
2015-08-09T02:15:30.241Z,73.13
2015-08-09T02:15:42.647Z,73.22
2015-08-09T02:15:55.069Z,73.13
2015-08-09T02:16:07.475Z,73.13
2015-08-09T02:16:19.852Z,73.13
2015-08-09T02:16:32.227Z,73.22
2015-08-09T02:16:44.602Z,73.22
2015-08-09T02:16:56.977Z,73.13
2015-08-09T02:17:09.352Z,73.32
2015-08-09T02:17:21.729Z,73.32
2015-08-09T02:17:34.104Z,73.41
2015-08-09T02:17:46.495Z,73.51
2015-08-09T02:17:58.870Z,72.94
2015-08-09T02:18:11.245Z,72.75
2015-08-09T02:18:23.622Z,72.37
2015-08-09T02:18:35.997Z,72.85
2015-08-09T02:18:48.372Z,72.85
2015-08-09T02:19:00.747Z,73.41
2015-08-09T02:19:13.138Z,73.41
2015-08-09T02:19:25.515Z,73.32
2015-08-09T02:19:37.890Z,72.85
2015-08-09T02:19:50.280Z,73.03
2015-08-09T02:20:02.655Z,73.22
2015-08-09T02:20:15.015Z,73.13
2015-08-09T02:20:27.392Z,72.94
2015-08-09T02:20:39.079Z,72.94
2015-08-09T02:20:51.454Z,73.41
2015-08-09T02:21:03.829Z,73.41
2015-08-09T02:21:16.220Z,73.51
2015-08-09T02:21:28.597Z,73.41
2015-08-09T02:21:40.972Z,73.51
2015-08-09T02:21:53.347Z,73.03
2015-08-09T02:22:05.737Z,72.85
2015-08-09T02:22:18.128Z,73.22
2015-08-09T02:22:30.505Z,72.94
2015-08-09T02:22:42.896Z,73.32
2015-08-09T02:22:55.271Z,73.03
2015-08-09T02:23:07.677Z,73.22
2015-08-09T02:23:20.083Z,73.22
2015-08-09T02:23:32.507Z,73.03
2015-08-09T02:23:44.913Z,73.03
2015-08-09T02:23:57.304Z,72.94
2015-08-09T02:24:09.726Z,73.41
2015-08-09T02:24:22.132Z,73.32
2015-08-09T02:24:34.525Z,73.41
2015-08-09T02:24:46.931Z,73.22
2015-08-09T02:24:59.368Z,73.41
2015-08-09T02:25:11.775Z,73.51
2015-08-09T02:25:24.197Z,73.03
2015-08-09T02:25:36.574Z,73.61
2015-08-09T02:25:48.949Z,73.03
2015-08-09T02:26:01.324Z,72.94
2015-08-09T02:26:13.699Z,73.13
2015-08-09T02:26:26.089Z,73.13
2015-08-09T02:26:38.465Z,73.03
2015-08-09T02:26:50.840Z,73.13
2015-08-09T02:27:03.231Z,73.22
2015-08-09T02:27:15.606Z,73.32
2015-08-09T02:27:27.981Z,73.13
2015-08-09T02:27:40.374Z,73.41
2015-08-09T02:27:52.749Z,73.32
2015-08-09T02:28:05.140Z,72.85
2015-08-09T02:28:17.515Z,72.37
2015-08-09T02:28:29.906Z,73.51
2015-08-09T02:28:42.283Z,72.85
2015-08-09T02:28:54.658Z,72.94
2015-08-09T02:29:07.033Z,72.56
2015-08-09T02:29:19.408Z,72.75
2015-08-09T02:29:31.798Z,72.75
2015-08-09T02:29:44.191Z,72.85
2015-08-09T02:29:56.582Z,72.85
2015-08-09T02:30:08.957Z,72.37
2015-08-09T02:30:21.347Z,72.75
2015-08-09T02:30:33.722Z,72.85
2015-08-09T02:30:46.098Z,72.85
2015-08-09T02:30:58.473Z,73.13
2015-08-09T02:31:10.848Z,72.85
2015-08-09T02:31:23.239Z,72.94
2015-08-09T02:31:35.661Z,73.13
2015-08-09T02:31:48.039Z,73.03
2015-08-09T02:32:00.429Z,72.65
2015-08-09T02:32:12.820Z,72.56
2015-08-09T02:32:25.226Z,72.65
2015-08-09T02:32:37.632Z,72.65
2015-08-09T02:32:50.041Z,72.65
2015-08-09T02:33:02.447Z,72.75
2015-08-09T02:33:14.150Z,72.46
2015-08-09T02:33:26.541Z,72.37
2015-08-09T02:33:38.947Z,72.37
2015-08-09T02:33:51.355Z,72.56
2015-08-09T02:34:03.777Z,72.75
2015-08-09T02:34:16.183Z,72.56
2015-08-09T02:34:28.574Z,72.65
2015-08-09T02:34:40.980Z,72.65
2015-08-09T02:34:53.356Z,72.46
2015-08-09T02:35:05.731Z,72.56
2015-08-09T02:35:18.106Z,72.75
2015-08-09T02:35:30.481Z,72.46
2015-08-09T02:35:42.856Z,72.46
2015-08-09T02:35:55.233Z,72.65
2015-08-09T02:36:07.608Z,72.46
2015-08-09T02:36:19.999Z,72.37
2015-08-09T02:36:32.374Z,72.17
2015-08-09T02:36:44.733Z,72.37
2015-08-09T02:36:57.127Z,72.37
2015-08-09T02:37:09.502Z,72.46
2015-08-09T02:37:21.877Z,72.46
2015-08-09T02:37:34.252Z,72.27
2015-08-09T02:37:46.705Z,72.46
2015-08-09T02:37:59.082Z,72.46
2015-08-09T02:38:11.457Z,72.46
2015-08-09T02:38:23.832Z,71.8
2015-08-09T02:38:36.207Z,72.56
2015-08-09T02:38:48.598Z,72.27
2015-08-09T02:39:00.974Z,72.17
2015-08-09T02:39:13.380Z,71.89
2015-08-09T02:39:25.770Z,71.7
2015-08-09T02:39:38.161Z,71.51